Time;durP1;ratioP1;P1;durP2;ratioP2;P2;SDS_P1;SDS_P2;PMS_P1;PMS_P2;Temp;Humidity;BMP_temperature;BMP_pressure;BME280_temperature;BME280_humidity;BME280_pressure;Samples;Min_cycle;Max_cycle;Signal;HPM_P1;HPM_P2
2022/04/29 00:01:29;;;;;;;8.38;5.68;;;6.40;99.90;;;;;;5011127;28;20033;-67
2022/04/29 00:03:54;;;;;;;13.18;5.07;;;6.40;99.90;;;;;;5013072;28;20096;-67
2022/04/29 00:06:20;;;;;;;13.05;5.85;;;6.40;99.90;;;;;;5011919;28;20076;-67
2022/04/29 00:08:46;;;;;;;11.55;5.45;;;6.40;99.90;;;;;;5010735;28;20045;-67
2022/04/29 00:11:12;;;;;;;11.45;5.50;;;6.30;99.90;;;;;;5012424;28;20467;-67
2022/04/29 00:13:38;;;;;;;17.00;6.07;;;6.30;99.90;;;;;;5043670;28;20499;-68
2022/04/29 00:16:05;;;;;;;9.95;5.47;;;6.40;99.90;;;;;;5043194;28;20041;-68
2022/04/29 00:18:31;;;;;;;14.10;5.53;;;6.40;99.90;;;;;;5011076;28;20049;-68
2022/04/29 00:20:57;;;;;;;12.55;4.93;;;6.30;99.90;;;;;;5011954;28;20083;-68
2022/04/29 00:23:23;;;;;;;13.52;5.97;;;6.40;99.90;;;;;;5012117;28;20093;-68
2022/04/29 00:25:48;;;;;;;12.05;5.57;;;6.40;99.90;;;;;;5008032;28;20049;-68
2022/04/29 00:28:14;;;;;;;8.15;5.25;;;6.40;99.90;;;;;;4994364;28;20053;-68
2022/04/29 00:30:40;;;;;;;6.93;4.93;;;6.40;99.90;;;;;;5012702;28;20030;-68
2022/04/29 00:33:06;;;;;;;15.15;5.85;;;6.40;99.90;;;;;;5010175;28;20188;-68
2022/04/29 00:35:31;;;;;;;13.30;5.65;;;6.30;99.90;;;;;;5010945;28;20042;-67
2022/04/29 00:37:58;;;;;;;13.15;5.90;;;6.40;99.90;;;;;;5010786;28;20057;-67
2022/04/29 00:40:26;;;;;;;9.00;5.95;;;6.40;99.90;;;;;;5011985;28;20036;-67
2022/04/29 00:42:52;;;;;;;10.18;6.47;;;6.30;99.90;;;;;;5010510;28;20053;-67
2022/04/29 00:45:20;;;;;;;8.82;5.20;;;6.30;99.90;;;;;;5009836;28;20050;-67
2022/04/29 00:47:47;;;;;;;9.18;5.50;;;6.30;99.90;;;;;;5010145;28;20048;-68
2022/04/29 00:50:15;;;;;;;9.73;5.25;;;6.30;99.90;;;;;;5011472;28;20381;-67
2022/04/29 00:52:44;;;;;;;14.15;6.70;;;6.30;99.90;;;;;;5007252;28;20069;-67
2022/04/29 00:55:12;;;;;;;10.80;6.07;;;6.30;99.90;;;;;;5009935;28;20052;-67
2022/04/29 00:58:12;;;;;;;12.57;5.35;;;6.30;99.90;;;;;;5010406;28;20034;-68
2022/04/29 01:00:38;;;;;;;10.68;5.38;;;6.30;99.90;;;;;;5011118;28;20404;-68
2022/04/29 01:03:04;;;;;;;8.70;5.00;;;6.30;99.90;;;;;;5009723;28;20041;-68
2022/04/29 01:05:33;;;;;;;10.70;5.95;;;6.30;99.90;;;;;;5009508;28;20042;-67
2022/04/29 01:07:59;;;;;;;13.18;6.30;;;6.20;99.90;;;;;;5009584;28;20053;-67
2022/04/29 01:10:24;;;;;;;10.27;5.88;;;6.20;99.90;;;;;;5009648;28;20037;-67
2022/04/29 01:12:53;;;;;;;8.60;5.30;;;6.20;99.90;;;;;;5008631;28;20038;-67
2022/04/29 01:15:19;;;;;;;10.98;6.65;;;6.10;99.90;;;;;;5009357;28;20424;-67
2022/04/29 01:17:48;;;;;;;9.60;5.85;;;6.10;99.90;;;;;;5011813;28;20088;-67
2022/04/29 01:20:16;;;;;;;13.52;5.65;;;6.10;99.90;;;;;;5009026;28;20080;-67
2022/04/29 01:22:42;;;;;;;10.98;5.80;;;6.00;99.90;;;;;;5011358;28;20126;-67
2022/04/29 01:25:09;;;;;;;13.07;6.90;;;6.10;99.90;;;;;;5008741;28;20042;-67
2022/04/29 01:27:34;;;;;;;12.85;7.32;;;6.00;99.90;;;;;;5008628;28;20046;-67
2022/04/29 01:30:09;;;;;;;12.70;6.97;;;5.90;99.90;;;;;;5008482;28;20049;-67
2022/04/29 01:32:36;;;;;;;11.13;6.30;;;5.80;99.90;;;;;;5011258;28;20373;-67
2022/04/29 01:35:02;;;;;;;12.73;7.47;;;5.70;99.90;;;;;;5008455;28;20129;-67
2022/04/29 01:37:28;;;;;;;13.60;7.40;;;5.70;99.90;;;;;;5009922;28;20804;-67
2022/04/29 01:39:54;;;;;;;11.23;6.20;;;5.60;99.90;;;;;;5009628;28;20088;-67
2022/04/29 01:42:19;;;;;;;12.98;5.97;;;5.60;99.90;;;;;;5011365;28;20041;-67
2022/04/29 01:44:45;;;;;;;12.85;6.70;;;5.60;99.90;;;;;;5011251;28;20026;-67
2022/04/29 01:47:12;;;;;;;9.20;5.95;;;5.70;99.90;;;;;;5009319;28;20046;-67
2022/04/29 01:49:37;;;;;;;8.25;5.18;;;5.60;99.90;;;;;;5010567;28;20092;-67
2022/04/29 01:52:03;;;;;;;9.15;5.10;;;5.60;99.90;;;;;;5008727;28;20077;-67
2022/04/29 01:54:29;;;;;;;7.78;5.28;;;5.60;99.90;;;;;;5009585;28;20538;-67
2022/04/29 01:56:55;;;;;;;7.45;6.38;;;5.60;99.90;;;;;;5009412;28;20038;-68
2022/04/29 01:59:20;;;;;;;11.80;6.22;;;5.60;99.90;;;;;;5009130;28;20088;-67
2022/04/29 02:01:46;;;;;;;13.00;6.30;;;5.60;99.90;;;;;;5010228;28;20447;-67
2022/04/29 02:04:13;;;;;;;7.68;5.78;;;5.60;99.90;;;;;;5013828;28;20049;-67
2022/04/29 02:06:39;;;;;;;11.07;6.00;;;5.60;99.90;;;;;;5007994;28;20045;-67
2022/04/29 02:09:06;;;;;;;7.18;4.40;;;5.50;99.90;;;;;;5013410;28;20129;-67
2022/04/29 02:11:32;;;;;;;7.15;4.63;;;5.50;99.90;;;;;;5013671;28;20451;-67
2022/04/29 02:13:57;;;;;;;9.77;4.72;;;5.50;99.90;;;;;;5015835;28;20107;-67
2022/04/29 02:16:23;;;;;;;8.27;4.75;;;5.40;99.90;;;;;;5015961;28;20042;-67
2022/04/29 02:18:49;;;;;;;7.70;5.07;;;5.40;99.90;;;;;;5014109;28;20081;-67
2022/04/29 02:21:14;;;;;;;9.00;5.75;;;5.40;99.90;;;;;;5014409;28;20038;-67
2022/04/29 02:23:40;;;;;;;9.00;5.97;;;5.30;99.90;;;;;;5015799;28;20049;-67
2022/04/29 02:26:06;;;;;;;9.48;6.63;;;5.40;99.90;;;;;;5013198;28;20117;-67
2022/04/29 02:28:32;;;;;;;10.02;6.38;;;5.30;99.90;;;;;;5014422;28;20034;-67
2022/04/29 02:30:58;;;;;;;15.02;7.32;;;5.40;99.90;;;;;;5014017;28;20060;-67
2022/04/29 02:33:25;;;;;;;13.48;7.07;;;5.40;99.90;;;;;;5014419;28;20516;-67
2022/04/29 02:35:51;;;;;;;10.07;6.22;;;5.40;99.90;;;;;;5013156;28;20041;-67
2022/04/29 02:38:17;;;;;;;8.43;6.10;;;5.40;99.90;;;;;;5013558;28;20186;-67
2022/04/29 02:40:42;;;;;;;8.63;7.03;;;5.40;99.90;;;;;;5013527;28;20493;-67
2022/04/29 02:43:08;;;;;;;9.82;6.78;;;5.50;99.90;;;;;;5012423;28;20112;-67
2022/04/29 02:45:34;;;;;;;10.38;6.43;;;5.40;99.90;;;;;;5011384;28;20061;-67
2022/04/29 02:48:00;;;;;;;9.00;6.05;;;5.50;99.90;;;;;;5012683;28;20141;-67
2022/04/29 02:50:26;;;;;;;7.93;6.10;;;5.50;99.90;;;;;;5012022;28;20041;-68
2022/04/29 02:52:52;;;;;;;11.13;6.57;;;5.50;99.90;;;;;;5045647;28;20127;-67
2022/04/29 02:55:20;;;;;;;10.00;6.95;;;5.50;99.90;;;;;;5027965;28;20080;-67
2022/04/29 02:57:46;;;;;;;13.63;7.32;;;5.50;99.90;;;;;;5013809;28;20038;-67
2022/04/29 03:00:12;;;;;;;10.52;6.35;;;5.60;99.90;;;;;;5012373;28;20046;-67
2022/04/29 03:02:37;;;;;;;9.10;6.43;;;5.60;99.90;;;;;;5011997;28;20076;-67
2022/04/29 03:05:07;;;;;;;12.93;7.13;;;5.60;99.90;;;;;;5013147;28;20041;-67
2022/04/29 03:07:33;;;;;;;9.05;6.45;;;5.50;99.90;;;;;;5013276;28;20457;-67
2022/04/29 03:09:59;;;;;;;9.45;6.88;;;5.60;99.90;;;;;;5011727;28;20052;-67
2022/04/29 03:12:25;;;;;;;15.55;7.32;;;5.60;99.90;;;;;;5013721;28;20057;-67
2022/04/29 03:14:51;;;;;;;10.57;7.22;;;5.60;99.90;;;;;;5012876;28;20037;-67
2022/04/29 03:20:01;;;;;;;12.25;6.93;;;5.60;99.90;;;;;;5008464;28;20049;-67
2022/04/29 03:22:27;;;;;;;13.55;6.72;;;5.60;99.90;;;;;;5013252;28;20045;-67
2022/04/29 03:24:53;;;;;;;11.38;6.45;;;5.60;99.90;;;;;;5012017;28;20092;-67
2022/04/29 03:27:19;;;;;;;14.50;7.57;;;5.50;99.90;;;;;;5012132;28;20044;-67
2022/04/29 03:29:44;;;;;;;10.43;6.25;;;5.50;99.90;;;;;;5012962;28;20045;-68
2022/04/29 03:32:10;;;;;;;12.52;6.63;;;5.50;99.90;;;;;;5013312;28;20034;-67
2022/04/29 03:34:36;;;;;;;13.15;6.35;;;5.50;99.90;;;;;;5012096;28;20052;-67
2022/04/29 03:37:01;;;;;;;9.02;6.78;;;5.50;99.90;;;;;;5011170;28;20073;-67
2022/04/29 03:39:27;;;;;;;11.15;6.30;;;5.50;99.90;;;;;;5011323;28;20103;-67
2022/04/29 03:41:53;;;;;;;11.18;6.65;;;5.50;99.90;;;;;;5012919;28;20546;-67
2022/04/29 03:44:20;;;;;;;10.93;6.28;;;5.40;99.90;;;;;;5011463;28;20128;-67
2022/04/29 03:46:45;;;;;;;11.30;6.82;;;5.40;99.90;;;;;;5011322;28;20168;-67
2022/04/29 03:51:55;;;;;;;8.88;7.53;;;5.40;99.90;;;;;;5012161;28;20492;-67
2022/04/29 03:54:21;;;;;;;12.35;7.63;;;5.40;99.90;;;;;;5012864;28;20121;-67
2022/04/29 03:56:47;;;;;;;13.65;6.97;;;5.40;99.90;;;;;;5011939;28;20060;-67
2022/04/29 03:59:12;;;;;;;9.52;6.63;;;5.40;99.90;;;;;;5012459;28;20038;-68
2022/04/29 04:01:38;;;;;;;13.10;7.25;;;5.40;99.90;;;;;;5011321;28;20434;-67
2022/04/29 04:04:04;;;;;;;8.38;6.90;;;5.40;99.90;;;;;;5010991;28;20045;-67
2022/04/29 04:09:14;;;;;;;12.43;6.53;;;5.40;99.90;;;;;;5042309;28;20480;-67
2022/04/29 04:11:41;;;;;;;11.00;6.03;;;5.40;99.90;;;;;;5012109;28;20045;-67
2022/04/29 04:14:08;;;;;;;12.77;6.05;;;5.30;99.90;;;;;;5012118;28;20045;-67
2022/04/29 04:16:34;;;;;;;8.80;5.70;;;5.20;99.90;;;;;;5043360;28;20088;-67
2022/04/29 04:18:59;;;;;;;13.43;7.40;;;5.20;99.90;;;;;;5011476;28;20033;-67
2022/04/29 04:21:25;;;;;;;12.23;7.13;;;5.10;99.90;;;;;;5012364;28;20038;-67
2022/04/29 04:23:53;;;;;;;8.85;6.72;;;5.10;99.90;;;;;;5042974;28;20927;-67
2022/04/29 04:26:19;;;;;;;12.90;7.05;;;5.00;99.90;;;;;;5009727;28;20046;-67
2022/04/29 04:28:44;;;;;;;13.02;8.07;;;5.00;99.90;;;;;;5011506;28;20505;-67
2022/04/29 04:31:10;;;;;;;9.85;6.60;;;5.00;99.90;;;;;;5010435;28;20046;-67
2022/04/29 04:33:35;;;;;;;10.73;6.85;;;5.10;99.90;;;;;;5010426;28;20463;-67
2022/04/29 04:36:01;;;;;;;10.30;7.35;;;5.00;99.90;;;;;;5011546;28;20041;-67
2022/04/29 04:38:27;;;;;;;10.18;7.35;;;5.10;99.90;;;;;;5009125;28;20048;-67
2022/04/29 04:40:53;;;;;;;14.30;7.10;;;5.10;99.90;;;;;;5010280;28;20397;-67
2022/04/29 04:43:20;;;;;;;10.35;7.07;;;5.20;99.90;;;;;;5010715;28;20054;-67
2022/04/29 04:45:47;;;;;;;10.18;7.95;;;5.30;99.90;;;;;;5010788;28;20037;-67
2022/04/29 04:48:12;;;;;;;13.80;8.57;;;5.30;99.90;;;;;;5010040;28;20041;-67
2022/04/29 04:50:38;;;;;;;8.55;7.50;;;5.40;99.90;;;;;;5011705;28;20369;-67
2022/04/29 04:53:03;;;;;;;10.35;7.60;;;5.40;99.90;;;;;;5009696;28;20046;-67
2022/04/29 04:55:29;;;;;;;10.70;7.03;;;5.50;99.90;;;;;;5010153;28;20381;-67
2022/04/29 04:57:54;;;;;;;19.00;8.07;;;5.50;99.90;;;;;;5008510;28;20439;-67
2022/04/29 05:00:21;;;;;;;8.82;6.78;;;5.60;99.90;;;;;;5012743;28;20064;-67
2022/04/29 05:02:46;;;;;;;13.40;7.78;;;5.80;99.90;;;;;;5042354;28;20061;-67
2022/04/29 05:05:12;;;;;;;13.27;8.45;;;5.80;99.90;;;;;;5012183;28;20504;-67
2022/04/29 05:07:38;;;;;;;13.93;9.00;;;5.90;99.90;;;;;;5010918;28;20077;-67
2022/04/29 05:10:06;;;;;;;14.80;8.90;;;6.00;99.90;;;;;;5009472;28;20056;-67
2022/04/29 05:12:37;;;;;;;13.13;7.90;;;6.20;99.90;;;;;;5009920;28;20045;-67
2022/04/29 05:15:03;;;;;;;14.10;8.38;;;6.20;99.90;;;;;;5009802;28;20495;-67
2022/04/29 05:17:29;;;;;;;12.25;8.50;;;6.30;99.90;;;;;;5011156;28;20040;-67
2022/04/29 05:19:55;;;;;;;14.75;7.75;;;6.50;99.90;;;;;;5009509;28;20920;-67
2022/04/29 05:22:20;;;;;;;11.80;8.77;;;6.80;99.90;;;;;;5008138;28;20038;-67
2022/04/29 05:24:49;;;;;;;13.10;8.20;;;6.90;99.90;;;;;;5010875;28;20500;-67
2022/04/29 05:27:15;;;;;;;12.82;7.82;;;7.10;99.90;;;;;;5013038;28;20068;-67
2022/04/29 05:29:40;;;;;;;14.15;7.60;;;7.40;99.90;;;;;;5010191;28;20069;-67
2022/04/29 05:32:07;;;;;;;13.45;8.40;;;7.60;99.90;;;;;;5011856;28;20039;-67
2022/04/29 05:34:33;;;;;;;11.57;7.72;;;7.60;99.90;;;;;;5009435;28;20034;-67
2022/04/29 05:37:02;;;;;;;18.60;8.55;;;7.70;99.90;;;;;;5040486;28;20052;-67
2022/04/29 05:42:15;;;;;;;10.93;7.70;;;7.70;99.90;;;;;;5011043;28;20037;-67
2022/04/29 05:44:42;;;;;;;11.55;7.45;;;7.70;99.90;;;;;;5010771;28;20037;-67
2022/04/29 05:47:07;;;;;;;13.80;7.22;;;7.70;99.90;;;;;;5009451;28;20065;-67
2022/04/29 05:49:33;;;;;;;8.75;7.43;;;7.70;99.90;;;;;;5009276;28;20046;-67
2022/04/29 05:52:02;;;;;;;15.95;7.22;;;7.60;99.90;;;;;;5010020;28;20049;-67
2022/04/29 05:54:28;;;;;;;9.77;7.85;;;7.60;99.90;;;;;;5042095;28;20045;-67
2022/04/29 05:56:53;;;;;;;9.35;7.15;;;7.70;99.90;;;;;;5010197;28;20100;-67
2022/04/29 05:59:19;;;;;;;14.70;7.47;;;7.70;99.90;;;;;;5009267;28;20048;-67
2022/04/29 06:01:45;;;;;;;10.70;8.00;;;7.70;99.90;;;;;;5009748;28;20045;-67
2022/04/29 06:04:10;;;;;;;11.68;7.50;;;7.80;99.90;;;;;;5010765;28;20091;-67
2022/04/29 06:06:36;;;;;;;10.82;7.40;;;7.80;99.90;;;;;;5007749;28;20044;-67
2022/04/29 06:09:02;;;;;;;11.57;6.55;;;7.80;99.90;;;;;;5010378;28;20485;-67
2022/04/29 06:11:27;;;;;;;13.48;7.00;;;7.80;99.90;;;;;;5007301;28;20042;-67
2022/04/29 06:13:53;;;;;;;12.60;6.68;;;8.00;99.90;;;;;;5010267;28;20137;-67
2022/04/29 06:16:19;;;;;;;14.20;8.25;;;8.00;99.90;;;;;;5009017;28;20042;-67
2022/04/29 06:18:45;;;;;;;10.35;6.28;;;8.00;99.90;;;;;;5008987;28;20049;-67
2022/04/29 06:21:11;;;;;;;11.57;6.28;;;8.00;99.90;;;;;;5008888;28;20041;-67
2022/04/29 06:23:36;;;;;;;10.07;6.72;;;8.10;99.90;;;;;;5009330;28;20069;-67
2022/04/29 06:26:02;;;;;;;12.43;6.18;;;8.20;99.90;;;;;;5003057;28;20073;-67
2022/04/29 06:28:28;;;;;;;12.52;5.57;;;8.20;99.90;;;;;;5009431;28;20045;-67
2022/04/29 06:30:53;;;;;;;13.57;5.38;;;8.20;99.90;;;;;;5008407;28;20045;-67
2022/04/29 06:33:20;;;;;;;12.07;5.63;;;8.30;99.90;;;;;;5007087;28;20036;-67
2022/04/29 06:35:49;;;;;;;9.73;5.57;;;8.30;99.90;;;;;;5008850;28;20117;-67
2022/04/29 06:38:15;;;;;;;9.77;5.30;;;8.40;99.90;;;;;;5009059;28;20050;-67
2022/04/29 06:40:41;;;;;;;9.02;5.40;;;8.40;99.90;;;;;;5010053;28;20377;-67
2022/04/29 06:43:07;;;;;;;10.07;4.63;;;8.50;99.90;;;;;;5007748;28;20049;-67
2022/04/29 06:45:32;;;;;;;11.07;5.22;;;8.50;99.90;;;;;;5009847;28;20034;-67
2022/04/29 06:47:58;;;;;;;9.32;5.22;;;8.60;99.90;;;;;;5008670;28;20048;-67
2022/04/29 06:50:23;;;;;;;12.00;5.18;;;8.70;99.90;;;;;;5010724;28;20038;-67
2022/04/29 06:52:49;;;;;;;9.38;5.03;;;8.80;99.90;;;;;;5012124;28;20111;-67
2022/04/29 06:55:14;;;;;;;9.77;4.55;;;8.90;99.90;;;;;;5012707;28;20452;-66
2022/04/29 06:57:40;;;;;;;6.38;4.97;;;8.90;99.90;;;;;;5014657;28;20042;-66
2022/04/29 07:00:06;;;;;;;11.70;4.32;;;8.90;99.90;;;;;;5012300;28;20484;-67
2022/04/29 07:02:34;;;;;;;4.15;3.75;;;9.00;99.90;;;;;;5041229;28;20456;-66
2022/04/29 07:05:00;;;;;;;7.13;4.18;;;9.00;99.90;;;;;;5012377;28;20431;-67
2022/04/29 07:07:28;;;;;;;8.13;3.70;;;9.10;99.90;;;;;;5011499;28;20038;-67
2022/04/29 07:09:54;;;;;;;8.25;3.40;;;9.20;99.90;;;;;;5010563;28;20049;-66
2022/04/29 07:12:20;;;;;;;6.95;3.17;;;9.20;99.90;;;;;;5014142;28;20069;-67
2022/04/29 07:14:46;;;;;;;10.40;3.00;;;9.30;99.90;;;;;;5012244;28;20100;-67
2022/04/29 07:17:12;;;;;;;6.03;2.67;;;9.30;99.90;;;;;;5011518;28;20045;-67
2022/04/29 07:19:37;;;;;;;4.72;2.00;;;9.40;99.90;;;;;;5010726;28;20488;-67
2022/04/29 07:22:04;;;;;;;6.28;2.10;;;9.40;99.90;;;;;;5013200;28;20033;-67
2022/04/29 07:24:30;;;;;;;6.35;2.40;;;9.40;99.90;;;;;;5012629;28;20045;-67
2022/04/29 07:26:57;;;;;;;6.95;2.40;;;9.40;99.90;;;;;;5010519;28;20042;-67
2022/04/29 07:29:23;;;;;;;9.27;3.40;;;9.40;99.90;;;;;;5012149;28;20038;-67
2022/04/29 07:31:48;;;;;;;7.25;2.30;;;9.60;99.90;;;;;;5011381;28;20494;-67
2022/04/29 07:34:14;;;;;;;8.65;2.33;;;9.80;99.90;;;;;;5011952;28;20077;-67
2022/04/29 07:42:08;;;;;;;7.07;2.38;;;10.00;99.90;;;;;;5011254;28;20049;-67
2022/04/29 07:44:34;;;;;;;10.27;2.00;;;10.00;99.90;;;;;;5011145;28;20829;-67
2022/04/29 07:47:00;;;;;;;5.55;2.38;;;9.90;99.90;;;;;;5011881;28;20050;-67
2022/04/29 07:49:26;;;;;;;9.57;3.00;;;9.90;99.90;;;;;;5012130;28;20042;-67
2022/04/29 07:51:51;;;;;;;5.25;1.77;;;10.00;99.90;;;;;;5010476;28;20172;-67
2022/04/29 07:54:17;;;;;;;7.65;2.55;;;10.00;99.90;;;;;;5012424;28;20124;-67
2022/04/29 07:56:43;;;;;;;6.13;2.35;;;10.00;99.90;;;;;;5009621;28;20038;-67
2022/04/29 07:59:08;;;;;;;4.57;1.77;;;10.00;99.90;;;;;;5011682;28;20484;-67
2022/04/29 08:01:40;;;;;;;4.50;1.77;;;9.90;99.90;;;;;;5010990;28;20046;-67
2022/04/29 08:04:05;;;;;;;5.93;1.70;;;10.20;99.90;;;;;;5010379;28;20052;-67
2022/04/29 08:06:31;;;;;;;5.85;1.27;;;10.60;99.90;;;;;;5012577;28;20034;-68
2022/04/29 08:08:57;;;;;;;4.47;1.35;;;10.60;99.90;;;;;;5011800;28;20496;-67
2022/04/29 08:11:24;;;;;;;6.75;1.45;;;10.90;99.90;;;;;;5010741;28;20128;-67
2022/04/29 08:13:49;;;;;;;4.50;2.20;;;11.10;99.90;;;;;;5010908;28;20168;-67
2022/04/29 08:16:15;;;;;;;6.60;1.52;;;11.30;99.90;;;;;;5011304;28;20529;-67
2022/04/29 08:18:42;;;;;;;6.65;2.13;;;11.40;99.90;;;;;;5012058;28;20034;-67
2022/04/29 08:21:08;;;;;;;3.17;1.60;;;11.60;99.90;;;;;;5011100;28;20111;-67
2022/04/29 08:23:34;;;;;;;5.00;1.58;;;11.50;99.90;;;;;;5012151;28;20046;-68
2022/04/29 08:26:00;;;;;;;9.48;1.70;;;11.40;99.90;;;;;;5010985;28;20049;-68
2022/04/29 08:28:26;;;;;;;7.40;2.00;;;11.60;99.90;;;;;;5011973;28;20069;-67
2022/04/29 08:30:52;;;;;;;4.13;2.65;;;11.70;99.90;;;;;;4994175;28;20125;-67
2022/04/29 08:33:17;;;;;;;4.85;1.65;;;11.70;99.90;;;;;;5011911;28;20038;-67
2022/04/29 08:35:43;;;;;;;5.88;1.67;;;11.80;99.90;;;;;;5012319;28;20041;-67
2022/04/29 08:38:10;;;;;;;9.43;2.15;;;11.70;99.90;;;;;;5011586;28;20052;-67
2022/04/29 08:40:42;;;;;;;4.28;1.60;;;11.60;99.90;;;;;;5043351;28;20127;-68
2022/04/29 08:43:14;;;;;;;5.28;1.85;;;11.70;99.90;;;;;;5043364;28;20132;-67
2022/04/29 08:45:40;;;;;;;4.53;1.40;;;11.50;99.90;;;;;;5011644;28;20038;-67
2022/04/29 08:48:07;;;;;;;5.93;1.60;;;11.30;99.90;;;;;;5010639;28;20143;-67
2022/04/29 08:50:32;;;;;;;7.45;2.38;;;11.30;99.90;;;;;;5009081;28;20069;-67
2022/04/29 08:52:59;;;;;;;4.82;1.70;;;11.30;99.90;;;;;;5010348;28;20042;-68
2022/04/29 09:01:01;;;;;;;6.70;1.42;;;11.20;99.90;;;;;;5011171;28;20034;-67
2022/04/29 09:03:27;;;;;;;5.43;1.45;;;11.40;99.90;;;;;;5043432;28;20100;-67
2022/04/29 09:05:53;;;;;;;4.35;1.40;;;11.40;99.90;;;;;;5010141;28;20045;-67
2022/04/29 09:08:21;;;;;;;9.27;1.50;;;11.50;99.90;;;;;;5010779;28;20795;-67
2022/04/29 09:10:58;;;;;;;4.50;1.65;;;11.60;99.90;;;;;;5009938;28;20041;-67
2022/04/29 09:13:28;;;;;;;4.35;1.30;;;11.50;99.90;;;;;;5008894;28;20046;-67
2022/04/29 09:16:04;;;;;;;4.90;1.40;;;11.60;99.90;;;;;;5009883;28;20038;-67
2022/04/29 09:18:37;;;;;;;2.35;1.00;;;11.60;99.90;;;;;;5009987;28;20042;-67
2022/04/29 09:21:05;;;;;;;3.05;1.15;;;11.60;99.90;;;;;;5043287;28;20061;-67
2022/04/29 09:23:31;;;;;;;8.50;1.85;;;11.50;99.90;;;;;;5009617;28;20042;-67
2022/04/29 09:26:01;;;;;;;7.30;1.25;;;11.50;99.90;;;;;;5011066;28;20041;-67
2022/04/29 09:28:27;;;;;;;7.18;2.38;;;11.70;99.90;;;;;;5009550;28;20048;-67
2022/04/29 09:30:56;;;;;;;3.80;1.17;;;11.60;99.90;;;;;;5008673;28;20053;-67
2022/04/29 09:33:24;;;;;;;4.75;0.80;;;11.60;99.90;;;;;;5042622;28;20048;-67
2022/04/29 09:35:51;;;;;;;6.28;0.90;;;11.70;99.90;;;;;;5009887;28;20057;-67
2022/04/29 09:41:01;;;;;;;4.93;1.08;;;11.70;99.90;;;;;;5009783;28;20053;-67
2022/04/29 09:43:37;;;;;;;6.28;1.02;;;11.70;99.90;;;;;;5009903;28;20034;-67
2022/04/29 09:46:12;;;;;;;5.50;1.83;;;11.80;99.90;;;;;;5009530;28;20042;-67
2022/04/29 09:48:52;;;;;;;5.28;1.05;;;11.80;99.90;;;;;;5009536;28;20050;-67
2022/04/29 09:51:41;;;;;;;7.60;1.30;;;11.70;99.90;;;;;;5011052;28;20042;-67
2022/04/29 09:54:20;;;;;;;3.63;1.05;;;11.70;99.90;;;;;;5009228;28;20041;-67
2022/04/29 09:57:05;;;;;;;2.78;1.10;;;11.80;99.90;;;;;;5009851;28;20412;-67
2022/04/29 09:59:42;;;;;;;6.82;1.25;;;11.80;99.90;;;;;;5009768;28;20526;-67
2022/04/29 10:02:10;;;;;;;7.63;1.10;;;11.70;99.90;;;;;;5010585;28;20467;-67
2022/04/29 10:04:40;;;;;;;4.10;1.00;;;11.70;99.90;;;;;;4993256;28;20034;-67
2022/04/29 10:07:11;;;;;;;3.35;1.15;;;11.70;99.90;;;;;;5011370;28;20049;-67
2022/04/29 10:09:40;;;;;;;2.75;0.93;;;11.70;99.90;;;;;;5042788;28;20050;-67
2022/04/29 10:12:29;;;;;;;6.10;1.08;;;11.60;99.90;;;;;;5041618;28;20128;-68
2022/04/29 10:15:00;;;;;;;4.75;1.38;;;11.60;99.90;;;;;;5009840;28;20133;-68
2022/04/29 10:23:12;;;;;;;3.47;0.82;;;11.50;99.90;;;;;;5010022;28;20050;-68
2022/04/29 10:25:50;;;;;;;4.43;0.68;;;11.50;99.90;;;;;;5011936;28;20053;-68
2022/04/29 10:28:17;;;;;;;4.03;1.00;;;11.60;99.90;;;;;;5012948;28;20069;-68
2022/04/29 10:30:43;;;;;;;6.85;1.90;;;11.40;99.90;;;;;;5014056;28;20042;-67
2022/04/29 10:33:25;;;;;;;3.35;0.93;;;11.40;99.90;;;;;;5046456;28;20112;-68
2022/04/29 10:35:56;;;;;;;4.55;1.08;;;11.50;99.90;;;;;;5011537;28;20077;-68
2022/04/29 10:38:31;;;;;;;5.82;0.90;;;11.50;99.90;;;;;;5014381;28;20044;-68
2022/04/29 10:41:20;;;;;;;7.18;1.08;;;11.50;99.90;;;;;;5013228;28;20034;-68
2022/04/29 10:43:50;;;;;;;4.03;1.33;;;11.50;99.90;;;;;;5014261;28;20397;-68
2022/04/29 10:46:21;;;;;;;2.65;0.88;;;11.50;99.90;;;;;;5029247;28;20054;-68
2022/04/29 10:48:54;;;;;;;2.70;0.98;;;11.40;99.90;;;;;;5011734;28;20065;-68
2022/04/29 10:51:26;;;;;;;5.70;1.58;;;11.50;99.90;;;;;;5012571;28;20129;-68
2022/04/29 10:53:56;;;;;;;4.00;0.90;;;11.60;99.90;;;;;;5012245;28;20054;-68
2022/04/29 10:56:28;;;;;;;5.05;1.10;;;11.60;99.90;;;;;;5013943;28;20136;-68
2022/04/29 10:59:03;;;;;;;6.05;1.00;;;11.60;99.90;;;;;;5046323;28;20623;-67
2022/04/29 11:01:33;;;;;;;5.18;1.50;;;11.50;99.90;;;;;;5013818;28;20523;-68
2022/04/29 11:03:59;;;;;;;6.20;1.27;;;11.50;99.90;;;;;;4995774;28;20042;-68
2022/04/29 11:06:42;;;;;;;4.75;1.50;;;11.50;99.90;;;;;;5012547;28;20093;-68
2022/04/29 11:09:35;;;;;;;7.68;2.28;;;11.40;99.90;;;;;;5011805;28;20136;-68
2022/04/29 11:12:02;;;;;;;11.02;1.58;;;11.40;99.90;;;;;;5011054;28;20133;-68
2022/04/29 11:14:28;;;;;;;5.22;1.17;;;11.50;99.90;;;;;;5012770;28;20041;-68
2022/04/29 11:16:55;;;;;;;4.07;1.58;;;11.60;99.90;;;;;;5012111;28;20096;-68
2022/04/29 11:19:23;;;;;;;2.60;0.90;;;11.60;99.90;;;;;;5010907;28;20078;-68
2022/04/29 11:24:43;;;;;;;3.58;2.03;;;11.70;99.90;;;;;;5044485;28;20054;-68
2022/04/29 11:27:09;;;;;;;5.38;1.55;;;11.80;99.90;;;;;;5012675;28;20096;-68
2022/04/29 11:29:46;;;;;;;5.53;1.60;;;11.80;99.90;;;;;;5012077;28;20053;-68
2022/04/29 11:32:12;;;;;;;3.63;1.33;;;11.80;99.90;;;;;;5006172;28;20050;-68
2022/04/29 11:34:51;;;;;;;4.53;1.38;;;11.90;99.90;;;;;;5044240;28;20058;-68
2022/04/29 11:37:24;;;;;;;2.28;1.27;;;12.00;99.90;;;;;;5044545;28;20100;-68
2022/04/29 11:39:56;;;;;;;5.80;1.88;;;12.00;99.90;;;;;;5012687;28;20037;-68
2022/04/29 11:42:22;;;;;;;5.30;1.48;;;12.00;99.90;;;;;;5011405;28;20056;-68
2022/04/29 11:44:51;;;;;;;4.47;1.15;;;12.10;99.90;;;;;;5013439;28;20054;-68
2022/04/29 11:47:23;;;;;;;3.40;1.80;;;12.20;99.90;;;;;;5011368;28;20484;-69
2022/04/29 11:49:48;;;;;;;4.82;2.33;;;12.30;99.90;;;;;;5012911;28;20048;-69
2022/04/29 11:52:23;;;;;;;12.02;2.80;;;12.40;99.90;;;;;;5028404;28;20042;-69
2022/04/29 11:54:53;;;;;;;4.72;1.90;;;12.40;99.90;;;;;;5011835;28;20050;-69
2022/04/29 11:57:23;;;;;;;3.95;1.67;;;12.40;99.90;;;;;;5010551;28;20046;-69
2022/04/29 11:59:49;;;;;;;4.13;2.05;;;12.50;99.90;;;;;;5012288;28;20751;-69
2022/04/29 12:02:17;;;;;;;4.03;1.85;;;12.40;99.90;;;;;;5012600;28;20042;-69
2022/04/29 12:04:57;;;;;;;4.53;1.98;;;12.30;99.90;;;;;;5043855;28;20108;-68
2022/04/29 12:07:24;;;;;;;4.40;2.47;;;12.20;99.90;;;;;;5010582;28;20064;-69
2022/04/29 12:09:51;;;;;;;4.93;2.92;;;12.20;99.90;;;;;;5010940;28;20034;-69
2022/04/29 12:12:27;;;;;;;4.18;2.60;;;12.00;99.90;;;;;;5011316;28;20056;-68
2022/04/29 12:14:52;;;;;;;;;;;12.00;99.90;;;;;;5012387;28;20046;-69
2022/04/29 12:17:19;;;;;;;5.03;2.03;;;12.10;99.90;;;;;;5010029;28;19921;-69
2022/04/29 12:19:55;;;;;;;4.80;2.72;;;12.10;99.90;;;;;;5043763;28;20069;-69
2022/04/29 12:22:31;;;;;;;6.65;2.47;;;12.10;99.90;;;;;;5046059;28;20049;-69
2022/04/29 12:25:16;;;;;;;5.72;2.33;;;12.10;99.90;;;;;;5013625;28;20050;-69
2022/04/29 12:27:42;;;;;;;5.60;2.40;;;12.20;99.90;;;;;;5010547;28;20077;-69
2022/04/29 12:36:14;;;;;;;6.93;2.05;;;12.40;99.90;;;;;;5011463;28;20053;-69
2022/04/29 12:38:42;;;;;;;4.75;2.40;;;12.20;99.90;;;;;;5010891;28;20103;-69
2022/04/29 12:41:15;;;;;;;4.65;2.13;;;12.30;99.90;;;;;;5010698;28;20046;-69
2022/04/29 12:43:42;;;;;;;5.00;2.42;;;12.20;99.90;;;;;;5010045;28;20048;-69
2022/04/29 12:46:19;;;;;;;4.55;1.95;;;12.20;99.90;;;;;;5011165;28;20132;-69
2022/04/29 12:48:52;;;;;;;4.50;1.60;;;12.20;99.90;;;;;;5010284;28;20038;-69
2022/04/29 12:51:33;;;;;;;4.72;1.83;;;12.20;99.90;;;;;;5041351;28;20037;-69
2022/04/29 12:54:00;;;;;;;5.93;1.88;;;12.10;99.90;;;;;;5009724;28;20042;-68
2022/04/29 12:56:34;;;;;;;6.00;2.10;;;12.10;99.90;;;;;;5010469;28;20038;-69
2022/04/29 12:59:01;;;;;;;3.63;1.85;;;12.20;99.90;;;;;;5007593;28;20041;-69
2022/04/29 13:01:40;;;;;;;3.80;1.83;;;12.20;99.90;;;;;;5011143;28;20092;-68
2022/04/29 13:04:06;;;;;;;3.88;1.60;;;12.40;99.90;;;;;;5041427;28;20045;-69
2022/04/29 13:06:33;;;;;;;5.85;1.50;;;12.60;99.90;;;;;;5008447;28;20099;-68
2022/04/29 13:09:02;;;;;;;3.83;1.90;;;12.80;99.90;;;;;;5008822;28;20088;-68
2022/04/29 13:11:29;;;;;;;5.05;1.77;;;12.90;99.90;;;;;;5011049;28;20638;-68
2022/04/29 13:13:55;;;;;;;4.10;2.42;;;13.00;99.90;;;;;;5009489;28;20121;-68
2022/04/29 13:16:22;;;;;;;3.05;1.80;;;13.20;99.90;;;;;;5009843;28;20133;-68
2022/04/29 13:18:49;;;;;;;3.95;1.45;;;13.30;99.90;;;;;;5010868;28;20140;-69
2022/04/29 13:21:15;;;;;;;3.70;1.63;;;13.50;99.90;;;;;;5008266;28;20046;-68
2022/04/29 13:23:43;;;;;;;7.30;1.92;;;13.50;99.70;;;;;;5041022;28;20504;-68
2022/04/29 13:26:10;;;;;;;7.28;1.85;;;13.40;98.80;;;;;;5009774;28;20045;-68
2022/04/29 13:28:40;;;;;;;4.75;2.10;;;13.50;99.10;;;;;;5008384;28;20038;-69
2022/04/29 13:31:07;;;;;;;5.03;1.85;;;13.50;99.20;;;;;;5009756;28;20077;-68